Sinimbu, Brazil
Current Conditions -  °F | °C
As of 2:00 PM on Thursday 23 Oct 2014 (Local Time) from SBSM Reporting Station
Few Clouds Few Clouds  
Wind Chill: 81°   Ceiling: Unl
Heat Index: 82°   Visibility: 6mi
Dew Point: 63°   Wind: 10mph
Humidity: 54%   Direction: 110°ESE
Pressure: 30"   Gusts: NA
Location:  29.54°S, 52.52°W
Report Text: SBSM 231600Z 11009KT 9999 FEW020 27/17 Q1016
Loading
Personal Weather Stations






























Interactive Weather Map
Tropical Storm Tracking
New forecast layout! Learn more

10-Day Weather Forecast

Advertisements
Track Severe Weather on mobile